createdAt,value
2019-04-04T19:32:01.611Z,8.18
2019-04-04T19:34:31.337Z,8.08
2019-04-04T19:37:00.815Z,7.58
2019-04-04T19:39:30.314Z,7.83
2019-04-04T19:41:59.776Z,7.17
2019-04-04T19:44:29.173Z,7.42
2019-04-04T19:46:59.366Z,7.83
2019-04-04T19:49:28.791Z,7.37
2019-04-04T19:51:58.317Z,7.37
2019-04-04T19:54:33.480Z,7.03
2019-04-04T19:57:07.075Z,7.03
2019-04-04T19:59:45.951Z,7.25
2019-04-04T20:02:17.892Z,7.20
2019-04-04T20:04:47.303Z,6.97
2019-04-04T20:07:16.625Z,5.97
2019-04-04T20:09:46.338Z,6.92
2019-04-04T20:12:17.336Z,6.42
2019-04-04T20:14:47.030Z,5.90
2019-04-04T20:17:16.331Z,6.10
2019-04-04T20:19:45.720Z,6.22
2019-04-04T20:22:15.032Z,6.35
2019-04-04T20:24:44.347Z,6.45
2019-04-04T20:27:13.775Z,5.78
2019-04-04T20:29:45.268Z,6.60
2019-04-04T20:32:14.671Z,6.72
2019-04-04T20:34:44.065Z,6.83
2019-04-04T20:37:13.463Z,6.60
2019-04-04T20:39:44.386Z,6.83
2019-04-04T20:45:44.500Z,6.92
2019-04-04T20:48:16.227Z,6.80
2019-04-04T20:50:45.415Z,6.60
2019-04-04T20:53:14.802Z,7.40
2019-04-04T20:55:44.190Z,6.92
2019-04-04T20:58:13.593Z,7.08
2019-04-04T21:00:43.254Z,7.35
2019-04-04T21:03:13.378Z,7.00
2019-04-04T21:05:42.946Z,7.22
2019-04-04T21:08:12.329Z,7.22
2019-04-04T21:10:41.638Z,7.60
2019-04-04T21:13:10.978Z,7.40
2019-04-04T21:15:40.283Z,6.92
2019-04-04T21:18:09.725Z,7.83
2019-04-04T21:20:39.226Z,7.65
2019-04-04T21:23:08.941Z,7.28
2019-04-04T21:25:38.359Z,7.75
2019-04-04T21:28:11.514Z,7.67
2019-04-04T21:30:40.941Z,7.37
2019-04-04T21:33:10.403Z,7.22
2019-04-04T21:35:39.813Z,7.35
2019-04-04T21:38:09.215Z,7.55
2019-04-04T21:40:38.550Z,7.42
2019-04-04T21:43:08.423Z,7.25
2019-04-04T21:45:38.532Z,7.58
2019-04-04T21:48:07.906Z,7.33
2019-04-04T21:50:38.394Z,7.37
2019-04-04T21:53:08.083Z,7.30
2019-04-04T21:55:37.350Z,7.47
2019-04-04T21:58:06.734Z,7.85
2019-04-04T22:00:37.821Z,8.58
2019-04-04T22:03:08.806Z,8.48
2019-04-04T22:05:38.262Z,8.20
2019-04-04T22:08:07.687Z,8.48
2019-04-04T22:10:36.952Z,8.63
2019-04-04T22:13:06.295Z,9.00
2019-04-04T22:15:35.767Z,9.48
2019-04-04T22:18:05.182Z,9.25
2019-04-04T22:20:34.530Z,9.55
2019-04-04T22:23:03.887Z,9.15
2019-04-04T22:25:33.330Z,8.88
2019-04-04T22:28:02.811Z,9.13
2019-04-04T22:30:33.276Z,8.75
2019-04-04T22:33:02.676Z,9.25
2019-04-04T22:35:32.144Z,8.50
2019-04-04T22:38:01.574Z,9.00
2019-04-04T22:40:30.967Z,9.23
2019-04-04T22:43:00.469Z,9.65
2019-04-04T22:45:29.918Z,9.53
2019-04-04T22:47:59.364Z,9.25
2019-04-04T22:50:28.895Z,9.88
2019-04-04T22:52:58.367Z,9.83
2019-04-04T22:55:27.817Z,9.88
2019-04-04T22:57:57.251Z,10.58
2019-04-04T23:00:26.729Z,10.10
2019-04-04T23:02:57.172Z,9.80
2019-04-04T23:05:26.650Z,10.10
2019-04-04T23:07:55.877Z,9.75
2019-04-04T23:10:25.380Z,9.98
2019-04-04T23:12:54.739Z,9.60
2019-04-04T23:15:24.227Z,10.08
2019-04-04T23:17:53.770Z,9.85
2019-04-04T23:20:23.132Z,9.88
2019-04-04T23:22:53.292Z,9.58
2019-04-04T23:25:22.809Z,9.55
2019-04-04T23:27:52.250Z,9.58
2019-04-04T23:30:21.604Z,9.85
2019-04-04T23:32:51.019Z,9.98
2019-04-04T23:35:20.472Z,10.23
2019-04-04T23:37:49.839Z,9.20
2019-04-04T23:40:19.109Z,9.43
2019-04-04T23:42:48.504Z,9.53
2019-04-04T23:45:17.891Z,10.05
2019-04-04T23:47:47.482Z,9.23
2019-04-04T23:50:16.971Z,9.83
2019-04-04T23:52:46.351Z,9.35
2019-04-04T23:55:15.967Z,9.00
2019-04-04T23:57:45.456Z,9.03
